Time;durP1;ratioP1;P1;durP2;ratioP2;P2;SDS_P1;SDS_P2;PMS_P1;PMS_P2;Temp;Humidity;BMP_temperature;BMP_pressure;BME280_temperature;BME280_humidity;BME280_pressure;Samples;Min_cycle;Max_cycle;Signal;HPM_P1;HPM_P2
2022/12/06 00:00:12;;;;;;;9.82;7.10;;;;;;;7.29;100.00;96512.81;5068138;28;20581;-42
2022/12/06 00:02:40;;;;;;;9.85;6.53;;;;;;;7.36;100.00;96506.97;5069602;28;20480;-46
2022/12/06 00:05:10;;;;;;;8.68;7.30;;;;;;;7.83;100.00;96512.75;5069700;28;20634;-46
2022/12/06 00:07:38;;;;;;;9.48;7.75;;;;;;;7.60;100.00;96513.81;5069874;28;20084;-40
2022/12/06 00:10:08;;;;;;;10.60;8.38;;;;;;;7.77;100.00;96521.13;5069807;28;20080;-46
2022/12/06 00:12:36;;;;;;;9.77;7.68;;;;;;;8.01;100.00;96517.44;5069854;28;20076;-42
2022/12/06 00:15:05;;;;;;;9.40;7.85;;;;;;;8.15;100.00;96522.38;5069241;28;20610;-44
2022/12/06 00:17:33;;;;;;;9.68;8.45;;;;;;;8.23;100.00;96519.97;5049668;28;20092;-44
2022/12/06 00:20:10;;;;;;;10.35;8.30;;;;;;;8.19;100.00;96525.56;5061793;28;20084;-42
2022/12/06 00:22:43;;;;;;;10.25;8.20;;;;;;;8.04;100.00;96520.66;5069908;28;20084;-41
2022/12/06 00:25:12;;;;;;;10.88;8.57;;;;;;;8.20;100.00;96514.13;5069748;28;20551;-41
2022/12/06 00:27:40;;;;;;;10.52;8.70;;;;;;;8.02;100.00;96519.97;5069593;28;20472;-44
2022/12/06 00:30:09;;;;;;;10.95;8.50;;;;;;;7.89;100.00;96521.09;5069083;28;20754;-49
2022/12/06 00:32:38;;;;;;;10.55;8.85;;;;;;;7.89;100.00;96516.69;5068989;28;20480;-48
2022/12/06 00:35:07;;;;;;;12.88;8.77;;;;;;;7.82;100.00;96508.47;5068967;28;20080;-46
2022/12/06 00:37:36;;;;;;;11.80;9.18;;;;;;;7.83;100.00;96507.50;5068750;28;20088;-43
2022/12/06 00:40:06;;;;;;;10.70;8.90;;;;;;;7.87;100.00;96504.63;5069399;28;20556;-45
2022/12/06 00:42:34;;;;;;;11.70;9.32;;;;;;;8.02;100.00;96503.38;5070022;28;20076;-41
2022/12/06 00:45:02;;;;;;;10.68;8.93;;;;;;;8.03;100.00;96499.78;5069515;28;20110;-45
2022/12/06 00:47:30;;;;;;;11.80;9.40;;;;;;;8.20;100.00;96504.44;5069594;28;20072;-47
2022/12/06 00:49:59;;;;;;;13.52;9.68;;;;;;;8.24;100.00;96507.66;5068864;28;20543;-40
2022/12/06 00:52:27;;;;;;;14.35;10.05;;;;;;;8.16;100.00;96502.22;5068840;28;20080;-42
2022/12/06 00:54:57;;;;;;;13.70;10.27;;;;;;;7.98;100.00;96508.06;5069324;28;20072;-43
2022/12/06 00:57:25;;;;;;;12.75;10.10;;;;;;;8.15;100.00;96498.75;5069630;28;20106;-47
2022/12/06 00:59:53;;;;;;;13.45;10.15;;;;;;;8.19;100.00;96502.81;5069240;28;20064;-47
2022/12/06 01:02:22;;;;;;;14.15;9.40;;;;;;;8.19;100.00;96500.16;5065114;28;20084;-41
2022/12/06 01:04:50;;;;;;;12.50;9.93;;;;;;;8.36;100.00;96492.63;5066636;28;20080;-45
2022/12/06 01:07:19;;;;;;;13.15;10.07;;;;;;;8.35;100.00;96490.97;5068893;28;20103;-42
2022/12/06 01:09:47;;;;;;;13.27;9.90;;;;;;;8.05;100.00;96488.19;5067080;28;20079;-41
2022/12/06 01:12:16;;;;;;;12.80;10.20;;;;;;;8.09;100.00;96486.16;5065442;28;20456;-41
2022/12/06 01:14:45;;;;;;;13.27;10.10;;;;;;;8.21;100.00;96485.09;5068662;28;20080;-46
2022/12/06 01:17:13;;;;;;;15.07;10.30;;;;;;;8.03;100.00;96486.66;5068443;28;20116;-41
2022/12/06 01:19:41;;;;;;;13.80;10.43;;;;;;;8.00;100.00;96484.28;5067991;28;20683;-40
2022/12/06 01:22:10;;;;;;;13.88;10.45;;;;;;;8.10;100.00;96482.53;5068276;28;20072;-42
2022/12/06 01:24:38;;;;;;;14.43;10.93;;;;;;;8.01;100.00;96472.81;5068446;28;20084;-45
2022/12/06 01:27:06;;;;;;;15.35;11.52;;;;;;;8.15;100.00;96476.91;5065522;28;20567;-49
2022/12/06 01:29:36;;;;;;;14.25;11.13;;;;;;;7.99;100.00;96474.75;5067430;28;20087;-46
2022/12/06 01:32:05;;;;;;;13.70;10.70;;;;;;;8.23;100.00;96470.06;5068242;28;20072;-44
2022/12/06 01:34:33;;;;;;;14.32;11.55;;;;;;;8.26;100.00;96461.91;5068764;28;20132;-48
2022/12/06 01:37:01;;;;;;;14.25;10.95;;;;;;;7.88;100.00;96466.91;5068410;28;20080;-42
2022/12/06 01:39:29;;;;;;;15.73;11.43;;;;;;;8.25;100.00;96456.78;5067677;28;20590;-41
2022/12/06 01:41:58;;;;;;;16.20;11.25;;;;;;;8.09;100.00;96460.72;5068067;28;20076;-42
2022/12/06 01:44:41;;;;;;;15.88;11.50;;;;;;;7.85;100.00;96457.50;5067911;28;20087;-45
2022/12/06 01:47:15;;;;;;;15.00;11.07;;;;;;;7.68;100.00;96455.47;5067848;28;20091;-44
2022/12/06 01:49:46;;;;;;;13.60;11.00;;;;;;;7.73;100.00;96459.34;5066650;28;20088;-42
2022/12/06 01:52:15;;;;;;;14.48;10.90;;;;;;;7.73;100.00;96458.53;5067852;28;20579;-43
2022/12/06 01:54:44;;;;;;;14.35;10.68;;;;;;;7.90;100.00;96454.50;5068292;28;20069;-45
2022/12/06 01:57:14;;;;;;;16.20;11.35;;;;;;;7.83;100.00;96456.78;5068074;28;20091;-42
2022/12/06 01:59:44;;;;;;;14.75;11.15;;;;;;;7.77;100.00;96459.94;5067409;28;20638;-47
2022/12/06 02:02:12;;;;;;;14.95;11.18;;;;;;;7.47;100.00;96468.56;5066619;28;20542;-47
2022/12/06 02:04:41;;;;;;;15.18;11.13;;;;;;;7.77;100.00;96452.88;5067667;28;20639;-43
2022/12/06 02:07:09;;;;;;;15.30;11.38;;;;;;;7.56;100.00;96462.53;5067819;28;20084;-44
2022/12/06 02:09:38;;;;;;;15.00;11.07;;;;;;;7.39;100.00;96461.28;5067573;28;20068;-42
2022/12/06 02:12:12;;;;;;;14.82;10.77;;;;;;;7.61;100.00;96452.50;5067789;28;20095;-47
2022/12/06 02:14:43;;;;;;;15.75;10.90;;;;;;;7.50;100.00;96463.03;5068260;28;20088;-43
2022/12/06 02:17:23;;;;;;;13.55;10.10;;;;;;;7.07;100.00;96458.66;5068106;28;20072;-44
2022/12/06 02:20:15;;;;;;;15.60;10.10;;;;;;;6.94;100.00;96437.81;5067324;28;20535;-41
2022/12/06 02:23:12;;;;;;;15.10;11.02;;;;;;;7.01;100.00;96449.47;5058664;28;20075;-46
2022/12/06 02:25:59;;;;;;;14.70;10.95;;;;;;;6.92;100.00;96446.75;5060273;28;20084;-42
2022/12/06 02:28:51;;;;;;;14.82;10.15;;;;;;;6.71;100.00;96444.91;5067389;28;20084;-46
2022/12/06 02:31:25;;;;;;;14.77;10.93;;;;;;;6.97;100.00;96437.56;5029000;28;20080;-45
2022/12/06 02:33:59;;;;;;;16.98;11.13;;;;;;;7.17;100.00;96441.22;5047499;28;20391;-43
2022/12/06 02:36:30;;;;;;;18.73;12.07;;;;;;;7.47;100.00;96432.66;5063351;28;20473;-41
2022/12/06 02:39:03;;;;;;;16.55;11.77;;;;;;;7.19;100.00;96436.69;5067132;28;20091;-40
2022/12/06 02:41:35;;;;;;;17.25;12.23;;;;;;;7.46;100.00;96435.38;5067148;28;20084;-43
2022/12/06 02:44:05;;;;;;;16.23;11.70;;;;;;;7.42;100.00;96436.59;5067622;28;20072;-46
2022/12/06 02:46:37;;;;;;;14.88;11.00;;;;;;;7.32;100.00;96437.34;5067646;28;20080;-44
2022/12/06 02:49:07;;;;;;;17.73;12.15;;;;;;;7.34;100.00;96437.22;5067325;28;20087;-46
2022/12/06 02:51:36;;;;;;;16.48;12.43;;;;;;;7.67;100.00;96430.16;5067644;28;20083;-47
2022/12/06 02:54:07;;;;;;;16.98;10.85;;;;;;;7.43;100.00;96425.13;5067037;28;20087;-45
2022/12/06 02:56:36;;;;;;;15.77;11.73;;;;;;;7.54;100.00;96433.81;5067617;28;20091;-46
2022/12/06 02:59:04;;;;;;;16.85;12.05;;;;;;;7.64;100.00;96438.28;5067341;28;20535;-41
2022/12/06 03:01:37;;;;;;;15.98;11.27;;;;;;;7.10;100.00;96435.63;5065621;28;20508;-43
2022/12/06 03:04:33;;;;;;;16.95;12.65;;;;;;;7.49;100.00;96432.50;5047313;28;20084;-43
2022/12/06 03:07:15;;;;;;;17.55;11.65;;;;;;;6.89;100.00;96426.88;5065645;28;20084;-46
2022/12/06 03:09:49;;;;;;;16.30;11.00;;;;;;;7.53;100.00;96428.66;5066703;28;20076;-42
2022/12/06 03:12:25;;;;;;;15.80;11.13;;;;;;;7.40;100.00;96428.88;5046963;28;20064;-43
2022/12/06 03:15:00;;;;;;;14.48;10.88;;;;;;;7.65;100.00;96430.28;5047143;28;20045;-44
2022/12/06 03:17:35;;;;;;;15.85;11.52;;;;;;;7.40;100.00;96428.00;5066471;28;20091;-42
2022/12/06 03:20:08;;;;;;;15.63;11.55;;;;;;;7.33;100.00;96430.31;5065335;28;20086;-43
2022/12/06 03:22:39;;;;;;;17.50;12.15;;;;;;;7.25;100.00;96430.09;5063671;28;20102;-46
2022/12/06 03:25:08;;;;;;;17.40;11.73;;;;;;;7.27;100.00;96430.81;5066478;28;20091;-44
2022/12/06 03:27:38;;;;;;;16.42;11.95;;;;;;;7.56;100.00;96426.63;5066542;28;20080;-45
2022/12/06 03:30:09;;;;;;;15.85;11.73;;;;;;;7.40;100.00;96430.63;5066821;28;20084;-44
2022/12/06 03:32:41;;;;;;;16.55;11.65;;;;;;;7.32;100.00;96426.03;5066857;28;20083;-41
2022/12/06 03:35:12;;;;;;;17.45;12.50;;;;;;;7.50;100.00;96411.41;5070255;28;20084;-46
2022/12/06 03:37:42;;;;;;;17.75;12.70;;;;;;;7.57;100.00;96419.56;5070192;28;20075;-40
2022/12/06 03:40:16;;;;;;;17.45;11.63;;;;;;;7.61;100.00;96415.78;5070186;28;20089;-43
2022/12/06 03:42:46;;;;;;;16.63;11.82;;;;;;;7.26;100.00;96411.63;5070479;28;20095;-43
2022/12/06 03:45:14;;;;;;;17.33;11.88;;;;;;;7.56;100.00;96418.75;5070393;28;20099;-47
2022/12/06 03:47:48;;;;;;;18.38;12.25;;;;;;;7.81;100.00;96404.44;5070114;28;20095;-45
2022/12/06 03:50:21;;;;;;;16.70;12.02;;;;;;;7.24;100.00;96408.28;5070092;28;20088;-42
2022/12/06 03:52:50;;;;;;;15.65;11.40;;;;;;;7.42;100.00;96405.94;5070343;28;20084;-46
2022/12/06 03:55:19;;;;;;;15.43;11.60;;;;;;;7.62;100.00;96399.06;5070233;28;20099;-46
2022/12/06 03:57:47;;;;;;;16.80;12.18;;;;;;;7.57;100.00;96398.59;5069476;28;20088;-43
2022/12/06 04:00:16;;;;;;;15.10;11.95;;;;;;;7.35;100.00;96408.25;5070032;28;20119;-43
2022/12/06 04:02:46;;;;;;;18.52;12.93;;;;;;;7.01;100.00;96410.16;5069772;28;20072;-41
2022/12/06 04:05:14;;;;;;;17.20;11.27;;;;;;;7.19;100.00;96409.63;5069914;28;20080;-44
2022/12/06 04:07:43;;;;;;;17.20;11.60;;;;;;;6.93;100.00;96404.69;5069819;28;20052;-45
2022/12/06 04:10:11;;;;;;;16.15;11.95;;;;;;;6.85;100.00;96413.19;5070227;28;20091;-42
2022/12/06 04:15:27;;;;;;;17.15;12.45;;;;;;;6.63;100.00;96408.81;5067936;28;20091;-44
2022/12/06 04:18:12;;;;;;;17.30;12.05;;;;;;;6.49;100.00;96416.09;5069478;28;20126;-42
2022/12/06 04:23:30;;;;;;;16.60;12.15;;;;;;;6.32;100.00;96428.72;5069731;28;20091;-40
2022/12/06 04:25:59;;;;;;;18.57;12.73;;;;;;;6.52;100.00;96416.69;5069531;28;20088;-42
2022/12/06 04:39:32;;;;;;;19.85;12.55;;;;;;;7.08;100.00;96407.88;5069394;28;20473;-41
2022/12/06 04:44:47;;;;;;;16.92;12.77;;;;;;;7.27;100.00;96409.84;5068847;28;20075;-41
2022/12/06 04:47:15;;;;;;;18.00;12.88;;;;;;;6.90;100.00;96407.56;5069317;28;20079;-46
2022/12/06 04:49:44;;;;;;;17.10;11.82;;;;;;;7.16;100.00;96408.09;5069185;28;20094;-53
2022/12/06 04:52:13;;;;;;;16.50;12.45;;;;;;;7.09;100.00;96399.88;5069054;28;20084;-44
2022/12/06 04:54:41;;;;;;;17.83;12.82;;;;;;;6.86;100.00;96398.28;5069351;28;20657;-45
2022/12/06 04:57:12;;;;;;;17.10;12.43;;;;;;;7.06;100.00;96399.31;5067273;28;20083;-45
2022/12/06 04:59:42;;;;;;;19.15;12.38;;;;;;;7.04;100.00;96403.84;5068843;28;20508;-43
2022/12/06 05:02:12;;;;;;;18.63;13.18;;;;;;;7.00;100.00;96398.00;5068070;28;20079;-42
2022/12/06 05:04:40;;;;;;;18.00;12.65;;;;;;;6.61;100.00;96397.63;5068690;28;20076;-41
2022/12/06 05:07:10;;;;;;;18.80;12.75;;;;;;;6.81;100.00;96398.66;5068377;28;20076;-43
2022/12/06 05:09:39;;;;;;;17.67;12.48;;;;;;;7.05;100.00;96397.63;5068527;28;20091;-46
2022/12/06 05:12:08;;;;;;;19.50;12.52;;;;;;;7.11;100.00;96399.75;5063416;28;20498;-41
2022/12/06 05:14:36;;;;;;;17.90;12.40;;;;;;;7.03;100.00;96399.56;5068435;28;20068;-46
2022/12/06 05:17:04;;;;;;;19.02;12.98;;;;;;;7.05;100.00;96395.00;5068454;28;20133;-47
2022/12/06 05:19:33;;;;;;;16.65;11.32;;;;;;;6.86;100.00;96391.25;5068253;28;20076;-46
2022/12/06 05:22:01;;;;;;;16.85;12.02;;;;;;;7.04;100.00;96394.16;5068115;28;20540;-43
2022/12/06 05:24:31;;;;;;;18.25;12.38;;;;;;;7.03;100.00;96389.91;5068465;28;20064;-46
2022/12/06 05:26:59;;;;;;;18.97;13.40;;;;;;;6.75;100.00;96393.09;5068477;28;20084;-41
2022/12/06 05:29:27;;;;;;;17.27;11.98;;;;;;;6.87;100.00;96399.94;5064785;28;20063;-50
2022/12/06 05:31:56;;;;;;;16.40;11.50;;;;;;;6.96;100.00;96396.59;5067573;28;20091;-48
2022/12/06 05:34:24;;;;;;;17.27;11.52;;;;;;;7.01;100.00;96398.84;5068094;28;20088;-46
2022/12/06 05:36:53;;;;;;;18.25;12.05;;;;;;;7.02;100.00;96403.09;5068146;28;20080;-46
2022/12/06 05:39:21;;;;;;;16.05;11.27;;;;;;;7.04;100.00;96403.84;5067752;28;20528;-46
2022/12/06 05:41:51;;;;;;;16.63;11.30;;;;;;;7.04;100.00;96404.66;5068055;28;20109;-41
2022/12/06 05:44:19;;;;;;;18.87;11.83;;;;;;;7.06;100.00;96401.94;5068021;28;20068;-43
2022/12/06 05:46:47;;;;;;;16.15;11.77;;;;;;;7.06;100.00;96405.38;5067835;28;20072;-42
2022/12/06 05:49:15;;;;;;;15.98;11.57;;;;;;;7.13;100.00;96403.91;5067772;28;20079;-47
2022/12/06 05:51:44;;;;;;;16.40;11.55;;;;;;;7.19;100.00;96402.59;5067849;28;20080;-45
2022/12/06 05:54:12;;;;;;;16.75;11.40;;;;;;;7.30;100.00;96399.09;5067978;28;20076;-42
2022/12/06 05:56:40;;;;;;;18.80;12.23;;;;;;;7.19;100.00;96394.72;5066840;28;20060;-44
2022/12/06 05:59:10;;;;;;;18.65;12.75;;;;;;;7.22;100.00;96396.25;5067775;28;20076;-44
2022/12/06 06:01:38;;;;;;;18.98;13.07;;;;;;;7.41;100.00;96396.41;5067339;28;20496;-43
2022/12/06 06:04:07;;;;;;;18.67;12.68;;;;;;;7.29;100.00;96400.03;5067884;28;20060;-41
2022/12/06 06:06:35;;;;;;;19.75;13.13;;;;;;;7.34;100.00;96401.34;5067755;28;20201;-46
2022/12/06 06:09:03;;;;;;;19.83;13.43;;;;;;;7.23;100.00;96404.00;5066589;28;20566;-46
2022/12/06 06:11:32;;;;;;;18.42;12.52;;;;;;;7.21;100.00;96399.84;5066718;28;20724;-43
2022/12/06 06:14:00;;;;;;;19.02;13.02;;;;;;;6.72;100.00;96399.38;5067353;28;20536;-46
2022/12/06 06:16:31;;;;;;;22.23;13.82;;;;;;;7.07;100.00;96398.34;5067376;28;20079;-46
2022/12/06 06:19:00;;;;;;;21.00;13.98;;;;;;;7.16;100.00;96394.97;5067982;28;20087;-42
2022/12/06 06:21:28;;;;;;;19.38;13.43;;;;;;;6.89;100.00;96396.25;5067669;28;20083;-43
2022/12/06 06:23:57;;;;;;;21.08;13.30;;;;;;;6.94;100.00;96393.25;5057677;28;20540;-43
2022/12/06 06:26:25;;;;;;;20.33;13.50;;;;;;;7.26;100.00;96395.03;5049900;28;20084;-48
2022/12/06 06:28:54;;;;;;;16.60;12.48;;;;;;;7.25;100.00;96396.84;5067156;28;20091;-43
2022/12/06 06:31:22;;;;;;;20.88;13.20;;;;;;;7.18;100.00;96408.78;5066937;28;20076;-39
2022/12/06 06:33:52;;;;;;;19.50;12.90;;;;;;;7.30;100.00;96404.34;5067053;28;20071;-46
2022/12/06 06:36:20;;;;;;;20.13;12.70;;;;;;;6.82;100.00;96399.50;5067255;28;20075;-40
2022/12/06 06:38:48;;;;;;;19.42;12.85;;;;;;;6.85;100.00;96405.31;5066360;28;20076;-45
2022/12/06 06:41:17;;;;;;;20.30;13.30;;;;;;;6.82;100.00;96408.19;5067104;28;20535;-41
2022/12/06 06:43:45;;;;;;;21.60;14.35;;;;;;;6.87;100.00;96408.63;5067310;28;20571;-44
2022/12/06 06:46:13;;;;;;;20.27;13.13;;;;;;;6.62;100.00;96406.31;5067776;28;20092;-45
2022/12/06 06:48:41;;;;;;;22.58;13.90;;;;;;;6.83;100.00;96412.47;5046790;28;20084;-49
2022/12/06 06:51:13;;;;;;;23.20;14.10;;;;;;;6.99;100.00;96400.75;5047437;28;20080;-46
2022/12/06 06:53:41;;;;;;;23.08;14.38;;;;;;;7.03;100.00;96405.63;5066871;28;20087;-44
2022/12/06 06:56:10;;;;;;;26.95;15.77;;;;;;;6.91;100.00;96409.22;5067835;28;20080;-44
2022/12/06 06:58:38;;;;;;;22.50;14.48;;;;;;;6.95;100.00;96404.56;5067311;28;20087;-46
2022/12/06 07:01:08;;;;;;;24.42;14.77;;;;;;;7.28;100.00;96404.44;5067463;28;20472;-45
2022/12/06 07:03:37;;;;;;;21.27;14.40;;;;;;;7.33;100.00;96407.53;5067078;28;20080;-41
2022/12/06 07:06:09;;;;;;;23.15;14.02;;;;;;;7.21;100.00;96410.34;5065997;28;20080;-47
2022/12/06 07:08:40;;;;;;;24.17;13.98;;;;;;;7.37;100.00;96416.81;5068786;28;20079;-43
2022/12/06 07:11:09;;;;;;;26.35;15.27;;;;;;;7.34;100.00;96418.88;5071479;28;20111;-47
2022/12/06 07:13:38;;;;;;;22.30;14.05;;;;;;;7.62;100.00;96414.78;5056611;28;20065;-44
2022/12/06 07:16:10;;;;;;;21.83;14.57;;;;;;;7.55;100.00;96411.03;5058795;28;20186;-42
2022/12/06 07:18:38;;;;;;;22.88;14.35;;;;;;;7.41;100.00;96409.53;5070539;28;20088;-45
2022/12/06 07:21:09;;;;;;;24.65;15.18;;;;;;;7.46;100.00;96411.78;5053079;28;20521;-43
2022/12/06 07:23:39;;;;;;;22.35;14.30;;;;;;;7.23;100.00;96414.50;5068744;28;20076;-46
2022/12/06 07:26:10;;;;;;;23.47;15.07;;;;;;;7.52;100.00;96411.28;5070908;28;20275;-46
2022/12/06 07:28:39;;;;;;;22.65;14.88;;;;;;;7.21;100.00;96405.09;5070443;28;20083;-41
2022/12/06 07:31:08;;;;;;;26.92;15.20;;;;;;;7.68;100.00;96408.22;5070495;28;20095;-43
2022/12/06 07:33:37;;;;;;;23.13;14.55;;;;;;;7.27;100.00;96410.66;5070184;28;20095;-43
2022/12/06 07:36:06;;;;;;;24.00;14.93;;;;;;;7.31;100.00;96408.63;5070072;28;20090;-43
2022/12/06 07:38:42;;;;;;;24.88;15.40;;;;;;;7.04;100.00;96407.28;5055234;28;20086;-43
2022/12/06 07:46:46;;;;;;;26.20;15.20;;;;;;;7.73;100.00;96412.09;5070337;28;20814;-43
2022/12/06 07:49:15;;;;;;;21.45;13.82;;;;;;;7.88;100.00;96414.41;5070182;28;20072;-47
2022/12/06 07:51:44;;;;;;;23.98;15.10;;;;;;;7.59;100.00;96412.44;5070305;28;20543;-45
2022/12/06 07:54:15;;;;;;;21.50;13.77;;;;;;;7.59;100.00;96405.38;5070544;28;20754;-42
2022/12/06 07:56:44;;;;;;;22.58;15.63;;;;;;;7.50;100.00;96410.56;5070418;28;20566;-45
2022/12/06 07:59:12;;;;;;;24.10;14.25;;;;;;;7.49;100.00;96407.09;5049606;28;20498;-40
2022/12/06 08:01:42;;;;;;;23.55;14.45;;;;;;;7.37;100.00;96410.75;5064240;28;20080;-44
2022/12/06 08:04:10;;;;;;;23.38;14.82;;;;;;;7.63;100.00;96413.81;5069603;28;20088;-45
2022/12/06 08:06:39;;;;;;;23.42;13.93;;;;;;;7.44;100.00;96409.28;5069849;28;20088;-46
2022/12/06 08:09:08;;;;;;;21.08;14.23;;;;;;;7.30;100.00;96410.41;5069587;28;20096;-43
2022/12/06 08:11:37;;;;;;;21.65;13.60;;;;;;;7.87;100.00;96402.25;5070407;28;20087;-48
2022/12/06 08:14:06;;;;;;;23.92;14.90;;;;;;;7.99;100.00;96403.84;5070364;28;20551;-40
2022/12/06 08:16:34;;;;;;;23.52;14.35;;;;;;;8.08;100.00;96408.28;5069988;28;20419;-49
2022/12/06 08:19:02;;;;;;;23.27;15.20;;;;;;;8.35;100.00;96391.16;5068565;28;20535;-45
2022/12/06 08:21:31;;;;;;;24.02;15.15;;;;;;;8.10;100.00;96390.63;5066739;28;20083;-40
2022/12/06 08:23:59;;;;;;;21.60;14.02;;;;;;;8.40;100.00;96389.00;5069423;28;20084;-45
2022/12/06 08:26:27;;;;;;;22.17;15.13;;;;;;;8.38;100.00;96381.22;5070117;28;20084;-45
2022/12/06 08:28:59;;;;;;;23.92;15.23;;;;;;;8.50;100.00;96382.81;5069759;28;20080;-42
2022/12/06 08:31:29;;;;;;;23.55;15.18;;;;;;;8.57;100.00;96385.72;5069678;28;20090;-42
2022/12/06 08:33:57;;;;;;;22.95;14.30;;;;;;;8.35;100.00;96389.34;5069853;28;20483;-42
2022/12/06 08:36:26;;;;;;;24.15;14.52;;;;;;;8.51;100.00;96396.78;5069907;28;20091;-45
2022/12/06 08:38:55;;;;;;;21.77;14.00;;;;;;;8.66;100.00;96392.78;5069370;28;20079;-41
2022/12/06 08:44:13;;;;;;;22.33;13.60;;;;;;;8.25;100.00;96410.31;5069388;28;20091;-48
2022/12/06 08:46:41;;;;;;;22.55;13.50;;;;;;;8.07;100.00;96404.84;5069785;28;20075;-40
2022/12/06 08:49:10;;;;;;;20.98;13.20;;;;;;;8.09;100.00;96418.69;5069057;28;20076;-47
2022/12/06 08:51:38;;;;;;;22.05;12.35;;;;;;;7.78;100.00;96411.75;5069453;28;20098;-49
2022/12/06 08:54:08;;;;;;;21.20;13.50;;;;;;;8.26;100.00;96408.53;5069427;28;20084;-44
2022/12/06 08:56:37;;;;;;;22.58;13.25;;;;;;;8.13;100.00;96418.44;5068844;28;20072;-47
2022/12/06 08:59:05;;;;;;;19.95;13.88;;;;;;;8.33;100.00;96407.06;5069188;28;20084;-41
2022/12/06 09:01:35;;;;;;;19.80;12.98;;;;;;;8.21;100.00;96411.53;5063270;28;20084;-43
2022/12/06 09:04:07;;;;;;;22.08;13.60;;;;;;;8.56;100.00;96405.06;5069052;28;20602;-43
2022/12/06 09:06:37;;;;;;;21.08;12.48;;;;;;;8.03;100.00;96408.69;5069515;28;20072;-47
2022/12/06 09:09:06;;;;;;;18.17;12.80;;;;;;;8.52;100.00;96401.06;5068540;28;20088;-51
2022/12/06 09:11:34;;;;;;;21.30;13.43;;;;;;;8.41;100.00;96396.72;5069353;28;20088;-43
2022/12/06 09:14:02;;;;;;;20.20;13.85;;;;;;;8.79;100.00;96396.00;5068255;28;20083;-41
2022/12/06 09:16:31;;;;;;;19.50;13.65;;;;;;;9.08;100.00;96389.97;5065455;28;20488;-47
2022/12/06 09:19:01;;;;;;;20.13;13.95;;;;;;;9.35;100.00;96398.97;5068517;28;20082;-42
2022/12/06 09:21:30;;;;;;;21.17;13.77;;;;;;;9.15;100.00;96399.00;5068975;28;20471;-43
2022/12/06 09:23:59;;;;;;;20.83;14.20;;;;;;;9.24;100.00;96400.78;5069265;28;20087;-44
2022/12/06 09:26:27;;;;;;;21.48;14.10;;;;;;;9.44;100.00;96399.00;5069088;28;20084;-47
2022/12/06 09:28:56;;;;;;;21.23;14.10;;;;;;;9.47;100.00;96403.16;5068832;28;20080;-43
2022/12/06 09:31:25;;;;;;;20.75;13.80;;;;;;;9.49;100.00;96404.66;5068224;28;20072;-45
2022/12/06 09:33:54;;;;;;;22.55;14.50;;;;;;;9.56;100.00;96404.94;5068537;28;20088;-46
2022/12/06 09:36:25;;;;;;;21.55;14.38;;;;;;;9.75;100.00;96399.66;5068595;28;20122;-42
2022/12/06 09:38:56;;;;;;;24.63;14.70;;;;;;;9.31;100.00;96403.69;5064002;28;20595;-43
2022/12/06 09:41:37;;;;;;;23.63;15.15;;;;;;;9.60;100.00;96397.56;5068097;28;20212;-44
2022/12/06 09:44:16;;;;;;;22.42;15.20;;;;;;;9.57;100.00;96396.09;5067855;28;20130;-45
2022/12/06 09:46:55;;;;;;;21.23;14.30;;;;;;;9.49;100.00;96396.75;5068192;28;20099;-49
2022/12/06 09:49:32;;;;;;;22.10;13.75;;;;;;;9.18;100.00;96388.16;5067845;28;20067;-44
2022/12/06 09:52:22;;;;;;;20.80;13.80;;;;;;;9.64;100.00;96385.81;5067891;28;20079;-43
2022/12/06 09:54:54;;;;;;;;;;;;;;;9.33;100.00;96388.59;5068051;28;20087;-43
2022/12/06 09:57:33;;;;;;;20.40;13.90;;;;;;;9.47;100.00;96374.19;5067500;28;19990;-44
2022/12/06 10:00:05;;;;;;;18.50;13.57;;;;;;;9.66;100.00;96375.97;5048704;28;20081;-48
2022/12/06 10:03:08;;;;;;;20.15;14.55;;;;;;;9.60;100.00;96372.09;5067716;28;20084;-44
2022/12/06 10:05:41;;;;;;;21.20;14.00;;;;;;;9.70;100.00;96356.28;5068129;28;20088;-43
2022/12/06 10:08:24;;;;;;;19.55;13.23;;;;;;;9.35;100.00;96359.50;5067512;28;20076;-43
2022/12/06 10:10:57;;;;;;;18.33;13.57;;;;;;;10.04;100.00;96355.78;5068015;28;20084;-45
2022/12/06 10:13:46;;;;;;;19.58;14.00;;;;;;;9.75;100.00;96352.25;5067654;28;20091;-41
2022/12/06 10:16:21;;;;;;;19.33;14.18;;;;;;;9.31;100.00;96352.88;5067908;28;20072;-44
2022/12/06 10:19:01;;;;;;;22.20;15.18;;;;;;;9.54;100.00;96350.78;5067259;28;20083;-44
2022/12/06 10:21:39;;;;;;;19.67;13.88;;;;;;;10.07;100.00;96345.78;5067500;28;20091;-49
2022/12/06 10:24:16;;;;;;;19.42;13.85;;;;;;;9.99;100.00;96335.13;5067298;28;20071;-41
2022/12/06 10:26:48;;;;;;;19.58;13.27;;;;;;;9.78;100.00;96339.78;5067508;28;20068;-47
2022/12/06 10:29:20;;;;;;;19.55;13.55;;;;;;;10.15;100.00;96337.16;5067065;28;20094;-40
2022/12/06 10:31:57;;;;;;;20.17;13.70;;;;;;;10.14;100.00;96343.41;5068102;28;20517;-42
2022/12/06 10:34:37;;;;;;;17.95;12.93;;;;;;;10.10;100.00;96332.31;5067350;28;20771;-45
2022/12/06 10:37:13;;;;;;;19.83;13.73;;;;;;;10.10;100.00;96332.31;5067502;28;20544;-45
2022/12/06 10:39:48;;;;;;;18.58;13.07;;;;;;;9.59;100.00;96335.38;5066632;28;20084;-40
2022/12/06 10:42:32;;;;;;;18.27;13.02;;;;;;;10.20;100.00;96316.47;5066919;28;20082;-46
2022/12/06 10:47:02;;;;;;;18.85;13.43;;;;;;;10.07;100.00;96323.88;5067098;28;20075;-44
2022/12/06 10:47:55;;;;;;;19.42;13.38;;;;;;;10.25;100.00;96329.19;5066895;28;20540;-42
2022/12/06 10:50:25;;;;;;;19.88;13.65;;;;;;;10.04;100.00;96324.16;5066657;28;20076;-43
2022/12/06 10:53:00;;;;;;;18.63;12.88;;;;;;;10.25;100.00;96324.75;5066976;28;20092;-44
2022/12/06 10:55:35;;;;;;;19.92;12.50;;;;;;;10.34;100.00;96331.81;5067032;28;20072;-46
2022/12/06 10:58:12;;;;;;;19.33;12.55;;;;;;;10.31;100.00;96331.28;5066729;28;20084;-41
2022/12/06 11:00:46;;;;;;;18.50;12.65;;;;;;;10.02;100.00;96332.22;5067119;28;20072;-41
2022/12/06 11:03:19;;;;;;;17.17;11.65;;;;;;;9.74;100.00;96326.91;5066842;28;20111;-43
2022/12/06 11:05:50;;;;;;;15.40;11.00;;;;;;;10.03;100.00;96320.69;5066658;28;20590;-43
2022/12/06 11:08:21;;;;;;;17.45;11.80;;;;;;;10.31;100.00;96315.47;5066615;28;20095;-45
2022/12/06 11:10:52;;;;;;;15.55;10.73;;;;;;;10.13;100.00;96324.13;5065708;28;20084;-45
2022/12/06 11:13:22;;;;;;;16.67;10.80;;;;;;;10.28;100.00;96319.22;5054030;28;20072;-43
2022/12/06 11:15:53;;;;;;;16.48;10.93;;;;;;;10.10;100.00;96321.78;5066666;28;20107;-42
2022/12/06 11:18:22;;;;;;;15.88;10.80;;;;;;;9.84;100.00;96318.13;5066102;28;20083;-41
2022/12/06 11:20:55;;;;;;;14.55;10.65;;;;;;;10.13;100.00;96323.31;5066980;28;20084;-40
2022/12/06 11:23:27;;;;;;;15.88;11.45;;;;;;;10.01;100.00;96314.72;5066353;28;20472;-41
2022/12/06 11:26:04;;;;;;;14.00;10.20;;;;;;;9.91;100.00;96319.19;5066548;28;20087;-47
2022/12/06 11:28:38;;;;;;;14.35;10.55;;;;;;;10.26;100.00;96317.75;5049980;28;20072;-40
2022/12/06 11:31:14;;;;;;;14.18;10.90;;;;;;;10.23;100.00;96314.38;5066247;28;20570;-44
2022/12/06 11:33:42;;;;;;;13.20;10.13;;;;;;;10.21;100.00;96311.03;5066628;28;20717;-46
2022/12/06 11:36:10;;;;;;;15.23;9.68;;;;;;;10.34;100.00;96305.47;5066758;28;20076;-46
2022/12/06 11:38:40;;;;;;;14.75;10.65;;;;;;;10.32;100.00;96310.03;5066247;28;20492;-41
2022/12/06 11:41:14;;;;;;;12.13;9.30;;;;;;;10.18;100.00;96306.06;5064713;28;20111;-47
2022/12/06 11:43:45;;;;;;;16.08;10.07;;;;;;;10.15;100.00;96303.75;5051868;28;20642;-49
2022/12/06 11:46:14;;;;;;;13.93;9.82;;;;;;;10.41;100.00;96301.25;5066557;28;20068;-45
2022/12/06 11:48:42;;;;;;;15.35;10.10;;;;;;;9.98;100.00;96307.97;5066175;28;20068;-45
2022/12/06 11:51:16;;;;;;;13.48;10.32;;;;;;;10.63;100.00;96304.47;5066475;28;20087;-43
2022/12/06 11:53:54;;;;;;;13.10;10.00;;;;;;;10.78;100.00;96299.53;5066743;28;20347;-45
2022/12/06 11:56:25;;;;;;;16.42;10.98;;;;;;;10.89;100.00;96296.66;5069234;28;20075;-43
2022/12/06 11:59:10;;;;;;;14.05;10.13;;;;;;;10.41;100.00;96300.44;5070108;28;20545;-42
2022/12/06 12:01:43;;;;;;;14.20;9.82;;;;;;;10.63;100.00;96302.69;5069909;28;20083;-52